Time;durP1;ratioP1;P1;durP2;ratioP2;P2;SDS_P1;SDS_P2;PMS_P1;PMS_P2;Temp;Humidity;BMP_temperature;BMP_pressure;BME280_temperature;BME280_humidity;BME280_pressure;Samples;Min_cycle;Max_cycle;Signal;HPM_P1;HPM_P2
2021/12/03 00:02:15;;;;;;;7.85;4.30;;;0.10;99.90;;;;;;4898480;29;20052;-68
2021/12/03 00:04:40;;;;;;;10.77;4.65;;;0.10;99.90;;;;;;4882786;29;20489;-66
2021/12/03 00:07:06;;;;;;;11.52;5.05;;;0.10;99.90;;;;;;4898419;29;20052;-67
2021/12/03 00:09:35;;;;;;;11.35;5.97;;;0.10;99.90;;;;;;4900009;29;20068;-68
2021/12/03 00:12:03;;;;;;;15.27;6.03;;;0.20;99.90;;;;;;4884162;29;20052;-68
2021/12/03 00:14:28;;;;;;;11.52;6.30;;;0.20;99.90;;;;;;4899833;29;20060;-67
2021/12/03 00:16:54;;;;;;;12.40;6.85;;;0.20;99.90;;;;;;4899633;29;20170;-66
2021/12/03 00:19:19;;;;;;;14.05;6.85;;;0.20;99.90;;;;;;4882266;29;20052;-67
2021/12/03 00:21:45;;;;;;;16.67;7.45;;;0.30;99.90;;;;;;4898708;29;20428;-67
2021/12/03 00:24:11;;;;;;;13.73;7.28;;;0.40;99.90;;;;;;4883569;29;20059;-66
2021/12/03 00:26:37;;;;;;;13.73;6.60;;;0.30;99.90;;;;;;4882337;29;20063;-66
2021/12/03 00:29:03;;;;;;;10.98;6.53;;;0.30;99.90;;;;;;4883171;29;20064;-66
2021/12/03 00:31:29;;;;;;;10.30;6.88;;;0.30;99.90;;;;;;4882908;29;20409;-67
2021/12/03 00:33:55;;;;;;;12.02;6.68;;;0.30;99.90;;;;;;4882808;29;20052;-66
2021/12/03 00:36:20;;;;;;;10.48;5.95;;;0.30;99.90;;;;;;4881449;29;20390;-66
2021/12/03 00:38:50;;;;;;;12.45;6.00;;;0.40;99.90;;;;;;4898403;29;20500;-68
2021/12/03 00:41:19;;;;;;;8.73;5.10;;;0.30;99.90;;;;;;4882838;29;20516;-66
2021/12/03 00:43:46;;;;;;;10.82;5.25;;;0.30;99.90;;;;;;4899661;29;20059;-67
2021/12/03 00:46:16;;;;;;;9.60;5.20;;;0.30;99.90;;;;;;4898576;29;20519;-67
2021/12/03 00:48:47;;;;;;;8.98;5.10;;;0.30;99.90;;;;;;4899368;29;20049;-67
2021/12/03 00:51:14;;;;;;;15.00;5.18;;;0.40;99.90;;;;;;4882027;29;20502;-67
2021/12/03 00:53:41;;;;;;;15.95;5.85;;;0.40;99.90;;;;;;4899607;29;20052;-68
2021/12/03 00:56:08;;;;;;;9.15;4.50;;;0.40;99.90;;;;;;4898956;29;20552;-66
2021/12/03 00:58:34;;;;;;;9.23;4.75;;;0.50;99.90;;;;;;4899027;29;20055;-67
2021/12/03 01:01:00;;;;;;;12.13;5.00;;;0.40;99.90;;;;;;4898850;29;20414;-67
2021/12/03 01:03:26;;;;;;;12.27;5.40;;;0.40;99.90;;;;;;4897676;29;20536;-66
2021/12/03 01:05:52;;;;;;;10.48;5.68;;;0.50;99.90;;;;;;4898720;29;20390;-68
2021/12/03 01:08:17;;;;;;;11.50;5.72;;;0.50;99.90;;;;;;4899085;29;20091;-68
2021/12/03 01:10:43;;;;;;;10.88;6.20;;;0.50;99.90;;;;;;4881343;29;20052;-67
2021/12/03 01:13:09;;;;;;;13.40;6.38;;;0.50;99.90;;;;;;4899046;29;20063;-67
2021/12/03 01:15:37;;;;;;;14.55;7.40;;;0.50;99.90;;;;;;4898606;29;20052;-67
2021/12/03 01:18:05;;;;;;;11.40;7.22;;;0.60;99.90;;;;;;4898211;29;20116;-66
2021/12/03 01:20:32;;;;;;;17.45;8.00;;;0.50;99.90;;;;;;4898169;29;20125;-69
2021/12/03 01:22:59;;;;;;;17.45;8.93;;;0.50;99.90;;;;;;4882255;29;20044;-67
2021/12/03 01:25:25;;;;;;;16.60;8.35;;;0.50;99.90;;;;;;4879865;29;20133;-66
2021/12/03 01:27:53;;;;;;;18.40;9.63;;;0.60;99.90;;;;;;4866648;29;20517;-67
2021/12/03 01:30:22;;;;;;;18.13;9.32;;;0.60;99.90;;;;;;4881440;29;20060;-68
2021/12/03 01:32:49;;;;;;;15.88;10.25;;;0.60;99.90;;;;;;4881979;29;20064;-67
2021/12/03 01:35:15;;;;;;;14.75;10.18;;;0.60;99.90;;;;;;4898274;29;20072;-67
2021/12/03 01:37:42;;;;;;;19.23;10.68;;;0.60;99.90;;;;;;4881188;29;20060;-68
2021/12/03 01:40:12;;;;;;;17.23;11.10;;;0.60;99.90;;;;;;4896401;29;20157;-67
2021/12/03 01:42:38;;;;;;;21.67;11.40;;;0.60;99.90;;;;;;4881261;29;20053;-66
2021/12/03 01:45:08;;;;;;;14.23;10.07;;;0.60;99.90;;;;;;4881093;29;20153;-66
2021/12/03 01:47:35;;;;;;;18.73;11.55;;;0.60;99.90;;;;;;4880450;29;20058;-67
2021/12/03 01:50:01;;;;;;;16.55;11.05;;;0.60;99.90;;;;;;4896698;29;20152;-68
2021/12/03 01:52:26;;;;;;;15.80;10.40;;;0.50;99.90;;;;;;4881513;29;20140;-66
2021/12/03 01:54:53;;;;;;;17.70;10.82;;;0.50;99.90;;;;;;4881389;29;20112;-67
2021/12/03 01:57:19;;;;;;;16.90;12.07;;;0.50;99.90;;;;;;4898229;29;20088;-67
2021/12/03 01:59:45;;;;;;;18.25;11.85;;;0.50;99.90;;;;;;4880672;29;20072;-68
2021/12/03 02:02:11;;;;;;;17.17;12.63;;;0.50;99.90;;;;;;4897898;29;20143;-68
2021/12/03 02:04:36;;;;;;;18.13;13.07;;;0.50;99.90;;;;;;4880717;29;20060;-67
2021/12/03 02:07:02;;;;;;;20.38;12.50;;;0.50;99.90;;;;;;4897756;29;20132;-68
2021/12/03 02:09:28;;;;;;;22.15;13.18;;;0.50;99.90;;;;;;4881210;29;20071;-67
2021/12/03 02:11:53;;;;;;;22.33;13.18;;;0.50;99.90;;;;;;4881143;29;20052;-67
2021/12/03 02:14:20;;;;;;;21.55;13.88;;;0.50;99.90;;;;;;4881021;29;20060;-66
2021/12/03 02:16:46;;;;;;;26.42;14.88;;;0.50;99.90;;;;;;4880775;29;20102;-66
2021/12/03 02:19:13;;;;;;;23.83;16.23;;;0.50;99.90;;;;;;4881379;29;20091;-67
2021/12/03 02:21:38;;;;;;;22.52;15.50;;;0.50;99.90;;;;;;4897618;29;20052;-67
2021/12/03 02:24:05;;;;;;;22.95;16.05;;;0.60;99.90;;;;;;4881201;29;20558;-68
2021/12/03 02:26:30;;;;;;;21.55;16.08;;;0.60;99.90;;;;;;4896425;29;20493;-67
2021/12/03 02:28:56;;;;;;;19.85;15.95;;;0.60;99.90;;;;;;4881265;29;20060;-68
2021/12/03 02:31:24;;;;;;;25.23;15.15;;;0.60;99.90;;;;;;4880907;29;20036;-68
2021/12/03 02:33:50;;;;;;;23.27;15.52;;;0.60;99.90;;;;;;4896082;29;20063;-67
2021/12/03 02:36:17;;;;;;;23.83;15.18;;;0.50;99.90;;;;;;4880292;29;20061;-68
2021/12/03 02:38:43;;;;;;;22.60;15.43;;;0.60;99.90;;;;;;4897582;29;20080;-66
2021/12/03 02:41:09;;;;;;;22.30;15.38;;;0.60;99.90;;;;;;4880505;29;20180;-66
2021/12/03 02:43:35;;;;;;;21.98;15.38;;;0.60;99.90;;;;;;4896451;29;20060;-66
2021/12/03 02:46:01;;;;;;;22.50;16.02;;;0.50;99.90;;;;;;4880314;29;20058;-66
2021/12/03 02:48:27;;;;;;;24.17;15.95;;;0.60;99.90;;;;;;4880759;29;20060;-68
2021/12/03 02:50:54;;;;;;;24.10;16.25;;;0.60;99.90;;;;;;4896575;29;20527;-67
2021/12/03 02:53:20;;;;;;;23.25;15.57;;;0.60;99.90;;;;;;4897519;29;20064;-67
2021/12/03 02:55:46;;;;;;;22.02;15.90;;;0.60;99.90;;;;;;4877400;29;20053;-66
2021/12/03 02:58:12;;;;;;;20.90;14.85;;;0.50;99.90;;;;;;4877871;29;20092;-67
2021/12/03 03:00:40;;;;;;;20.83;14.60;;;0.60;99.90;;;;;;4879977;29;20049;-67
2021/12/03 03:03:06;;;;;;;22.92;14.75;;;0.50;99.90;;;;;;4879883;29;20104;-66
2021/12/03 03:05:32;;;;;;;19.15;14.30;;;0.50;99.90;;;;;;4879706;29;20061;-67
2021/12/03 03:07:58;;;;;;;23.65;15.63;;;0.50;99.90;;;;;;4880863;29;20390;-67
2021/12/03 03:10:29;;;;;;;21.02;14.80;;;0.50;99.90;;;;;;4880074;29;20102;-67
2021/12/03 03:12:57;;;;;;;22.60;14.05;;;0.50;99.90;;;;;;4897755;29;20131;-66
2021/12/03 03:15:22;;;;;;;16.98;13.80;;;0.50;99.90;;;;;;4897246;29;20048;-68
2021/12/03 03:17:48;;;;;;;18.70;13.75;;;0.40;99.90;;;;;;4881340;29;20112;-67
2021/12/03 03:20:15;;;;;;;21.50;14.40;;;0.40;99.90;;;;;;4879631;29;20060;-66
2021/12/03 03:22:42;;;;;;;14.88;12.27;;;0.50;99.90;;;;;;4896985;29;20510;-66
2021/12/03 03:25:11;;;;;;;19.30;14.93;;;0.50;99.90;;;;;;4897478;29;20044;-67
2021/12/03 03:27:37;;;;;;;21.02;14.45;;;0.40;99.90;;;;;;4896797;29;20056;-68
2021/12/03 03:30:06;;;;;;;18.92;14.75;;;0.40;99.90;;;;;;4897051;29;20131;-67
2021/12/03 03:32:32;;;;;;;20.92;13.73;;;0.40;99.90;;;;;;4880695;29;20393;-66
2021/12/03 03:34:57;;;;;;;20.35;14.13;;;0.40;99.90;;;;;;4898287;29;20051;-67
2021/12/03 03:37:23;;;;;;;18.23;13.80;;;0.40;99.90;;;;;;4883367;29;20052;-66
2021/12/03 03:39:49;;;;;;;17.35;13.77;;;0.40;99.90;;;;;;4883436;29;20092;-67
2021/12/03 03:42:14;;;;;;;20.65;14.40;;;0.40;99.90;;;;;;4883818;29;20053;-66
2021/12/03 03:44:41;;;;;;;19.02;14.32;;;0.40;99.90;;;;;;4883388;29;20063;-68
2021/12/03 03:47:07;;;;;;;16.35;12.63;;;0.40;99.90;;;;;;4898555;29;20049;-68
2021/12/03 03:49:34;;;;;;;21.15;15.15;;;0.30;99.90;;;;;;4900142;29;20060;-66
2021/12/03 03:52:00;;;;;;;15.95;13.02;;;0.30;99.90;;;;;;4883721;29;20092;-67
2021/12/03 03:54:26;;;;;;;19.83;14.45;;;0.30;99.90;;;;;;4899297;29;20128;-67
2021/12/03 03:56:52;;;;;;;18.50;14.05;;;0.30;99.90;;;;;;4883536;29;20445;-68
2021/12/03 03:59:18;;;;;;;21.10;14.38;;;0.30;99.90;;;;;;4882705;29;20120;-67
2021/12/03 04:01:46;;;;;;;19.38;14.00;;;0.30;99.90;;;;;;4899615;29;20049;-66
2021/12/03 04:04:12;;;;;;;21.23;14.60;;;0.40;99.90;;;;;;4900387;29;20099;-67
2021/12/03 04:06:38;;;;;;;20.52;14.98;;;0.40;99.90;;;;;;4883007;29;20439;-66
2021/12/03 04:09:03;;;;;;;20.38;15.30;;;0.40;99.90;;;;;;4909206;29;20060;-67
2021/12/03 04:11:29;;;;;;;20.90;15.18;;;0.40;99.90;;;;;;4882323;29;20060;-69
2021/12/03 04:13:55;;;;;;;20.73;14.45;;;0.30;99.90;;;;;;4883382;29;20053;-67
2021/12/03 04:16:21;;;;;;;19.52;14.38;;;0.30;99.90;;;;;;4882971;29;20072;-67
2021/12/03 04:18:47;;;;;;;20.42;14.63;;;0.20;99.90;;;;;;4882427;29;20120;-67
2021/12/03 04:21:13;;;;;;;18.08;13.02;;;0.30;99.90;;;;;;4882524;29;20161;-66
2021/12/03 04:23:39;;;;;;;17.63;13.75;;;0.30;99.90;;;;;;4882524;29;20061;-67
2021/12/03 04:26:06;;;;;;;17.95;13.93;;;0.30;99.90;;;;;;4882863;29;20063;-66
2021/12/03 04:28:31;;;;;;;19.27;13.15;;;0.30;99.90;;;;;;4883194;29;20061;-67
2021/12/03 04:30:57;;;;;;;17.15;13.48;;;0.30;99.90;;;;;;4882787;29;20515;-67
2021/12/03 04:33:23;;;;;;;19.10;14.23;;;0.30;99.90;;;;;;4884054;29;20064;-66
2021/12/03 04:35:48;;;;;;;16.80;12.70;;;0.30;99.90;;;;;;4882203;29;20088;-67
2021/12/03 04:38:14;;;;;;;17.35;13.43;;;0.30;99.90;;;;;;4882526;29;20063;-68
2021/12/03 04:40:42;;;;;;;20.52;14.50;;;0.30;99.90;;;;;;4881811;29;20056;-67
2021/12/03 04:43:08;;;;;;;20.80;14.13;;;0.30;99.90;;;;;;4883020;29;20056;-66
2021/12/03 04:45:34;;;;;;;19.27;13.77;;;0.30;99.90;;;;;;4897808;29;20076;-67
2021/12/03 04:48:02;;;;;;;17.75;14.50;;;0.40;99.90;;;;;;4883146;29;20438;-68
2021/12/03 04:50:30;;;;;;;16.60;13.48;;;0.40;99.90;;;;;;4880724;29;20049;-67
2021/12/03 04:52:57;;;;;;;18.13;14.02;;;0.40;99.90;;;;;;4882025;29;20131;-68
2021/12/03 04:55:23;;;;;;;19.77;13.38;;;0.40;99.90;;;;;;4882141;29;20095;-67
2021/12/03 04:57:50;;;;;;;18.17;14.02;;;0.40;99.90;;;;;;4882957;29;20079;-66
2021/12/03 05:00:30;;;;;;;19.13;14.68;;;0.40;99.90;;;;;;4881724;29;20136;-67
2021/12/03 05:02:57;;;;;;;16.77;13.55;;;0.40;99.90;;;;;;4882578;29;20064;-67
2021/12/03 05:05:24;;;;;;;20.20;13.55;;;0.40;99.90;;;;;;4881316;29;20049;-68
2021/12/03 05:07:57;;;;;;;20.13;14.60;;;0.50;99.90;;;;;;4899831;29;20068;-68
2021/12/03 05:10:27;;;;;;;21.52;15.05;;;0.50;99.90;;;;;;4898601;29;20080;-66
2021/12/03 05:12:59;;;;;;;22.25;14.43;;;0.50;99.90;;;;;;4899010;29;20056;-66
2021/12/03 05:15:25;;;;;;;16.70;13.75;;;0.50;99.90;;;;;;4889986;29;20127;-68
2021/12/03 05:17:51;;;;;;;18.70;13.95;;;0.50;99.90;;;;;;4904812;29;20052;-67
2021/12/03 05:20:16;;;;;;;18.10;12.95;;;0.50;99.90;;;;;;4880716;29;20148;-68
2021/12/03 05:22:42;;;;;;;16.92;12.65;;;0.50;99.90;;;;;;4881813;29;20196;-67
2021/12/03 05:25:08;;;;;;;17.25;13.30;;;0.50;99.90;;;;;;4898731;29;20139;-67
2021/12/03 05:27:34;;;;;;;21.10;14.10;;;0.50;99.90;;;;;;4897587;29;20067;-68
2021/12/03 05:30:00;;;;;;;17.70;13.70;;;0.60;99.90;;;;;;4881515;29;20397;-66
2021/12/03 05:32:26;;;;;;;22.58;14.50;;;0.60;99.90;;;;;;4898536;29;20056;-67
2021/12/03 05:34:51;;;;;;;16.95;12.95;;;0.60;99.90;;;;;;4880972;29;20108;-68
2021/12/03 05:37:17;;;;;;;21.30;13.90;;;0.60;99.90;;;;;;4882265;29;20059;-67
2021/12/03 05:39:43;;;;;;;18.85;13.65;;;0.60;99.90;;;;;;4897165;29;20060;-68
2021/12/03 05:42:09;;;;;;;18.95;13.43;;;0.60;99.90;;;;;;4882091;29;20450;-66
2021/12/03 05:44:35;;;;;;;19.65;13.10;;;0.70;99.90;;;;;;4880282;29;20057;-66
2021/12/03 05:47:00;;;;;;;16.38;12.20;;;0.60;99.90;;;;;;4881753;29;20104;-66
2021/12/03 05:49:27;;;;;;;19.08;13.57;;;0.70;99.90;;;;;;4880619;29;20052;-67
2021/12/03 05:51:53;;;;;;;18.38;12.63;;;0.70;99.90;;;;;;4880977;29;20095;-67
2021/12/03 05:54:20;;;;;;;17.33;13.20;;;0.70;99.90;;;;;;4896745;29;20057;-67
2021/12/03 05:56:46;;;;;;;17.98;12.98;;;0.80;99.90;;;;;;4881209;29;20108;-68
2021/12/03 05:59:12;;;;;;;20.65;13.40;;;0.80;99.90;;;;;;4881257;29;20057;-66
2021/12/03 06:01:38;;;;;;;18.98;12.27;;;0.80;99.90;;;;;;4898168;29;20449;-66
2021/12/03 06:04:03;;;;;;;19.35;12.85;;;0.80;99.90;;;;;;4880556;29;20049;-68
2021/12/03 06:06:29;;;;;;;18.83;12.65;;;0.80;99.90;;;;;;4880994;29;20131;-66
2021/12/03 06:08:57;;;;;;;22.08;13.75;;;0.80;99.90;;;;;;4880769;29;20104;-69
2021/12/03 06:11:24;;;;;;;19.40;13.00;;;0.90;99.90;;;;;;4880736;29;20056;-67
2021/12/03 06:13:49;;;;;;;19.02;13.50;;;0.90;99.90;;;;;;4896289;29;20067;-67
2021/12/03 06:16:15;;;;;;;16.63;12.02;;;0.90;99.90;;;;;;4897815;29;20049;-67
2021/12/03 06:18:41;;;;;;;19.92;12.40;;;0.90;99.90;;;;;;4881146;29;20219;-67
2021/12/03 06:21:09;;;;;;;21.95;12.38;;;0.90;99.90;;;;;;4864008;29;20072;-68
2021/12/03 06:23:35;;;;;;;17.55;10.98;;;0.90;99.90;;;;;;4896293;29;20075;-67
2021/12/03 06:26:02;;;;;;;17.00;12.05;;;1.00;99.90;;;;;;4880903;29;20478;-67
2021/12/03 06:28:30;;;;;;;18.55;11.63;;;1.00;99.90;;;;;;4897376;29;20108;-66
2021/12/03 06:30:56;;;;;;;19.42;11.52;;;1.00;99.90;;;;;;4897072;29;20053;-67
2021/12/03 06:33:22;;;;;;;18.35;12.00;;;0.90;99.90;;;;;;4896815;29;20063;-66
2021/12/03 06:35:48;;;;;;;18.60;11.85;;;1.00;99.90;;;;;;4896170;29;20053;-66
2021/12/03 06:38:15;;;;;;;17.63;11.32;;;1.00;99.90;;;;;;4896018;29;20053;-66
2021/12/03 06:40:42;;;;;;;18.50;11.85;;;1.00;99.90;;;;;;4883596;29;20112;-67
2021/12/03 06:43:07;;;;;;;20.17;11.80;;;1.00;99.90;;;;;;4897978;29;20072;-67
2021/12/03 06:45:34;;;;;;;17.88;12.38;;;1.00;99.90;;;;;;4881032;29;20061;-67
2021/12/03 06:47:59;;;;;;;19.48;12.13;;;1.00;99.90;;;;;;4897479;29;20060;-66
2021/12/03 06:50:25;;;;;;;17.20;11.88;;;1.00;99.90;;;;;;4879838;29;20432;-67
2021/12/03 06:52:59;;;;;;;17.27;11.63;;;1.10;99.90;;;;;;4881254;29;20143;-67
2021/12/03 06:55:26;;;;;;;17.95;11.85;;;1.10;99.90;;;;;;4897106;29;20502;-66
2021/12/03 06:57:51;;;;;;;19.77;11.48;;;1.20;99.90;;;;;;4880593;29;20123;-66
2021/12/03 07:00:19;;;;;;;19.92;12.63;;;1.10;99.90;;;;;;4894997;29;20157;-67
2021/12/03 07:02:45;;;;;;;22.77;12.75;;;1.80;99.90;;;;;;4880956;29;20057;-66
2021/12/03 07:05:11;;;;;;;21.75;11.98;;;1.10;99.90;;;;;;4880394;29;20389;-67
2021/12/03 07:07:37;;;;;;;19.38;12.32;;;1.30;99.90;;;;;;4881096;29;20056;-67
2021/12/03 07:10:04;;;;;;;19.38;11.95;;;1.20;99.90;;;;;;4899419;29;20131;-66
2021/12/03 07:12:31;;;;;;;22.10;13.82;;;1.20;99.90;;;;;;4900513;29;20064;-67
2021/12/03 07:14:58;;;;;;;26.42;14.98;;;1.30;99.90;;;;;;4900667;29;20127;-70
2021/12/03 07:17:26;;;;;;;26.10;13.50;;;1.30;99.90;;;;;;4902353;29;20048;-67
2021/12/03 07:19:55;;;;;;;23.05;14.38;;;1.30;99.90;;;;;;4885772;29;20052;-68
2021/12/03 07:22:21;;;;;;;22.55;13.70;;;1.40;99.90;;;;;;4900631;29;20068;-67
2021/12/03 07:24:46;;;;;;;20.75;13.60;;;1.40;99.90;;;;;;4900113;29;20056;-68
2021/12/03 07:27:12;;;;;;;22.20;15.45;;;1.40;99.90;;;;;;4900795;29;20504;-67
2021/12/03 07:29:37;;;;;;;28.10;17.80;;;1.40;99.90;;;;;;4884199;29;20078;-67
2021/12/03 07:32:03;;;;;;;22.40;14.88;;;1.30;99.90;;;;;;4899641;29;20052;-67
2021/12/03 07:34:31;;;;;;;23.48;14.45;;;1.40;99.90;;;;;;4883434;29;20056;-66
2021/12/03 07:36:56;;;;;;;23.95;14.23;;;1.40;99.90;;;;;;4883742;29;20048;-67
2021/12/03 07:39:22;;;;;;;25.02;13.45;;;1.50;99.90;;;;;;4900026;29;20077;-68
2021/12/03 07:41:48;;;;;;;22.83;12.60;;;1.40;99.90;;;;;;4900663;29;20135;-67
2021/12/03 07:44:13;;;;;;;23.52;13.45;;;1.40;99.90;;;;;;4868464;29;20119;-66
2021/12/03 07:46:39;;;;;;;21.50;13.68;;;1.40;99.90;;;;;;4883559;29;20056;-69
2021/12/03 07:49:04;;;;;;;26.38;16.83;;;1.40;99.90;;;;;;4899722;29;20059;-68
2021/12/03 07:51:30;;;;;;;24.25;14.57;;;1.40;99.90;;;;;;4898631;29;20536;-67
2021/12/03 07:53:56;;;;;;;24.30;13.27;;;1.40;99.90;;;;;;4899515;29;20509;-67
2021/12/03 07:56:21;;;;;;;28.02;14.60;;;1.40;99.90;;;;;;4898591;29;20068;-66
2021/12/03 07:58:47;;;;;;;25.92;14.00;;;1.40;99.90;;;;;;4883413;29;20053;-67
2021/12/03 08:01:13;;;;;;;23.35;15.52;;;1.40;99.90;;;;;;4882557;29;20060;-65
2021/12/03 08:03:39;;;;;;;24.98;15.23;;;1.50;99.90;;;;;;4883418;29;20148;-66
2021/12/03 08:06:08;;;;;;;25.73;13.93;;;1.50;99.90;;;;;;4883234;29;20136;-65
2021/12/03 08:08:37;;;;;;;26.75;15.02;;;1.50;99.90;;;;;;4883538;29;20053;-67
2021/12/03 08:11:03;;;;;;;28.95;14.95;;;1.50;99.90;;;;;;4883389;29;20061;-66
2021/12/03 08:13:28;;;;;;;27.88;16.58;;;1.50;99.90;;;;;;4883394;29;20067;-66
2021/12/03 08:15:54;;;;;;;27.17;16.20;;;1.60;99.90;;;;;;4883027;29;20406;-66
2021/12/03 08:18:20;;;;;;;29.80;15.68;;;1.60;99.90;;;;;;4883520;29;20124;-67
2021/12/03 08:20:46;;;;;;;31.90;16.08;;;1.60;99.90;;;;;;4882056;29;20060;-66
2021/12/03 08:23:12;;;;;;;31.77;18.13;;;1.60;99.90;;;;;;4884003;29;20068;-66
2021/12/03 08:25:38;;;;;;;31.38;18.52;;;1.70;99.90;;;;;;4867107;29;20057;-67
2021/12/03 08:28:04;;;;;;;32.00;17.65;;;1.70;99.90;;;;;;4898601;29;20438;-65
2021/12/03 08:30:30;;;;;;;33.72;19.48;;;1.70;99.90;;;;;;4897900;29;20060;-66
2021/12/03 08:32:57;;;;;;;36.25;18.80;;;1.80;99.90;;;;;;4898053;29;20057;-65
2021/12/03 08:35:23;;;;;;;31.17;19.73;;;1.80;99.90;;;;;;4898695;29;20431;-67
2021/12/03 08:37:50;;;;;;;35.33;19.92;;;1.80;99.90;;;;;;4882476;29;20093;-66
2021/12/03 08:40:16;;;;;;;41.13;21.98;;;1.90;99.90;;;;;;4882586;29;20068;-66
2021/12/03 08:42:42;;;;;;;39.42;21.95;;;2.00;99.90;;;;;;4882648;29;20525;-65
2021/12/03 08:45:08;;;;;;;35.30;21.65;;;1.90;99.90;;;;;;4882485;29;20131;-67
2021/12/03 08:47:36;;;;;;;39.42;22.13;;;1.90;99.90;;;;;;4898421;29;20362;-66
2021/12/03 08:50:08;;;;;;;44.20;23.60;;;2.00;99.90;;;;;;4882042;29;20413;-65
2021/12/03 08:55:12;;;;;;;43.50;24.13;;;2.00;99.90;;;;;;4897869;29;20067;-65
2021/12/03 08:57:38;;;;;;;41.67;23.63;;;2.00;99.90;;;;;;4899105;29;20060;-66
2021/12/03 09:00:22;;;;;;;42.72;25.40;;;2.00;99.90;;;;;;4898011;29;20107;-67
2021/12/03 09:02:49;;;;;;;42.42;24.63;;;2.10;99.90;;;;;;4899075;29;20056;-66
2021/12/03 09:05:15;;;;;;;41.20;23.58;;;2.00;99.90;;;;;;4897726;29;20081;-65
2021/12/03 09:07:41;;;;;;;43.40;24.67;;;2.10;99.90;;;;;;4899129;29;20064;-65
2021/12/03 09:10:10;;;;;;;48.28;25.95;;;2.10;99.90;;;;;;4882256;29;20506;-67
2021/12/03 09:12:36;;;;;;;47.53;26.70;;;2.10;99.90;;;;;;4898097;29;20056;-66
2021/12/03 09:15:10;;;;;;;49.78;26.88;;;2.10;99.90;;;;;;4899529;29;20056;-66
2021/12/03 09:17:48;;;;;;;46.33;24.98;;;2.10;99.90;;;;;;4897247;29;20059;-66
2021/12/03 09:23:03;;;;;;;48.15;25.17;;;2.20;99.90;;;;;;4897693;29;20092;-66
2021/12/03 09:25:34;;;;;;;45.33;24.85;;;2.20;99.90;;;;;;4881831;29;20052;-65
2021/12/03 09:28:02;;;;;;;43.20;24.15;;;2.20;99.90;;;;;;4897323;29;20173;-64
2021/12/03 09:30:35;;;;;;;43.40;23.50;;;2.30;99.90;;;;;;4898553;29;20056;-64
2021/12/03 09:33:02;;;;;;;43.67;24.42;;;2.30;99.90;;;;;;4893555;29;20059;-67
2021/12/03 09:35:29;;;;;;;46.53;23.95;;;2.30;99.90;;;;;;4899835;29;20060;-65
2021/12/03 09:37:55;;;;;;;44.50;24.77;;;2.40;99.90;;;;;;4900247;29;20056;-66
2021/12/03 09:40:23;;;;;;;42.22;24.67;;;2.40;99.90;;;;;;4900912;29;20070;-66
2021/12/03 09:42:50;;;;;;;41.22;24.25;;;2.50;99.90;;;;;;4905976;29;20434;-67
2021/12/03 09:45:16;;;;;;;52.58;26.02;;;2.50;99.90;;;;;;4881467;29;20053;-66
2021/12/03 09:47:42;;;;;;;51.20;24.42;;;2.50;99.90;;;;;;4882027;29;20561;-67
2021/12/03 09:50:13;;;;;;;41.45;22.67;;;2.50;99.90;;;;;;4881297;29;20128;-65
2021/12/03 09:52:49;;;;;;;42.75;23.40;;;2.60;99.90;;;;;;4897651;29;20056;-65
2021/12/03 09:55:16;;;;;;;38.92;22.20;;;2.50;99.90;;;;;;4881677;29;20131;-65
2021/12/03 09:57:55;;;;;;;39.03;22.75;;;2.70;99.90;;;;;;4897047;29;20090;-67
2021/12/03 10:00:42;;;;;;;44.80;20.95;;;2.70;99.90;;;;;;4896738;29;20049;-65
2021/12/03 10:03:25;;;;;;;34.47;19.30;;;2.70;99.90;;;;;;4897202;29;20497;-66
2021/12/03 10:14:52;;;;;;;34.97;17.73;;;2.90;99.90;;;;;;4874211;29;20528;-65
2021/12/03 10:17:40;;;;;;;31.73;16.30;;;3.00;99.90;;;;;;4881019;29;20041;-66
2021/12/03 10:28:21;;;;;;;27.02;15.18;;;3.10;99.90;;;;;;4880866;29;20060;-66
2021/12/03 10:33:57;;;;;;;24.30;12.68;;;3.20;99.90;;;;;;4897692;29;20064;-65
2021/12/03 10:39:09;;;;;;;25.67;11.35;;;3.20;99.90;;;;;;4881059;29;20067;-67
2021/12/03 10:42:00;;;;;;;19.23;9.98;;;3.20;99.90;;;;;;4880517;29;20056;-66
2021/12/03 10:44:35;;;;;;;19.65;9.15;;;3.20;99.90;;;;;;4883931;29;20128;-66
2021/12/03 10:47:19;;;;;;;23.05;9.25;;;3.20;99.90;;;;;;4884585;29;20371;-67
2021/12/03 10:49:56;;;;;;;18.63;9.05;;;3.20;99.90;;;;;;4884219;29;20057;-67
2021/12/03 10:52:31;;;;;;;22.25;9.35;;;3.30;99.90;;;;;;4902061;29;20162;-67
2021/12/03 11:00:50;;;;;;;19.42;9.35;;;3.30;99.90;;;;;;4901488;29;20139;-65
2021/12/03 11:04:03;;;;;;;27.13;12.73;;;3.30;99.90;;;;;;4884054;29;20059;-65
2021/12/03 11:11:56;;;;;;;22.08;8.57;;;3.30;99.90;;;;;;4901148;29;20070;-67
2021/12/03 11:20:12;;;;;;;17.25;6.65;;;3.30;99.90;;;;;;4883545;29;20139;-65
2021/12/03 11:39:47;;;;;;;12.75;5.30;;;3.30;99.90;;;;;;4881083;29;20405;-66
2021/12/03 11:48:45;;;;;;;12.32;5.90;;;3.30;99.90;;;;;;4900817;29;20471;-66
2021/12/03 11:54:53;;;;;;;10.68;5.47;;;3.20;99.90;;;;;;4900348;29;20052;-66
2021/12/03 12:08:22;;;;;;;15.63;6.47;;;3.10;99.90;;;;;;4898729;29;20124;-66
2021/12/03 12:19:00;;;;;;;26.77;13.88;;;2.90;99.90;;;;;;4899036;29;20517;-67
2021/12/03 12:29:02;;;;;;;13.65;8.70;;;;;;;;;;4885211;29;20471;-67
2021/12/03 12:39:48;;;;;;;14.27;6.55;;;2.80;99.90;;;;;;4892811;29;20061;-66
2021/12/03 12:58:59;;;;;;;12.35;6.43;;;2.90;99.90;;;;;;4884286;29;20060;-68
2021/12/03 13:07:06;;;;;;;13.65;7.32;;;3.00;99.90;;;;;;4898810;29;20136;-67
2021/12/03 13:09:21;;;;;;;11.75;7.20;;;3.00;99.90;;;;;;4880382;29;20131;-67
2021/12/03 13:18:02;;;;;;;12.05;8.10;;;3.10;99.90;;;;;;4878831;29;20049;-67
2021/12/03 13:20:22;;;;;;;14.15;8.35;;;3.20;99.90;;;;;;4874983;29;20061;-66
2021/12/03 13:23:05;;;;;;;12.55;7.88;;;3.30;99.90;;;;;;4894419;29;20498;-66
2021/12/03 14:22:51;;;;;;;12.30;6.97;;;3.50;99.90;;;;;;4880636;29;20052;-67
2021/12/03 14:32:06;;;;;;;14.20;7.63;;;3.60;99.90;;;;;;4886555;29;20049;-66
2021/12/03 14:34:41;;;;;;;10.82;7.05;;;3.60;99.90;;;;;;4862525;29;20053;-68
2021/12/03 14:38:37;;;;;;;11.35;6.80;;;3.70;99.90;;;;;;4878122;29;20506;-67
2021/12/03 14:41:21;;;;;;;16.50;6.55;;;3.70;99.90;;;;;;4879245;29;20080;-67
2021/12/03 14:44:32;;;;;;;10.10;6.53;;;3.70;99.90;;;;;;4880920;29;20067;-67
2021/12/03 14:49:47;;;;;;;10.75;6.90;;;3.80;99.90;;;;;;4880559;29;20421;-67
2021/12/03 14:54:53;;;;;;;10.98;6.88;;;3.80;99.90;;;;;;4880680;29;20139;-67
2021/12/03 14:57:36;;;;;;;14.13;6.72;;;3.80;99.90;;;;;;4881028;29;20175;-66
2021/12/03 15:00:19;;;;;;;9.85;6.57;;;3.80;99.90;;;;;;4895880;29;20144;-67
2021/12/03 15:05:56;;;;;;;11.48;6.97;;;3.90;99.90;;;;;;4880711;29;20048;-68
2021/12/03 15:08:30;;;;;;;11.82;6.63;;;3.90;99.90;;;;;;4900966;29;20576;-67
2021/12/03 15:21:58;;;;;;;15.77;9.38;;;3.90;99.90;;;;;;4880059;29;20143;-66
2021/12/03 15:30:17;;;;;;;10.07;8.40;;;3.90;99.90;;;;;;4880352;29;20053;-66
2021/12/03 15:35:15;;;;;;;10.02;7.82;;;3.90;99.90;;;;;;4900804;29;20139;-66
2021/12/03 15:38:05;;;;;;;10.75;7.45;;;3.90;99.90;;;;;;4884251;29;20077;-66
2021/12/03 15:40:53;;;;;;;11.07;6.90;;;3.90;99.90;;;;;;4884142;29;20066;-67
2021/12/03 16:05:44;;;;;;;12.48;9.65;;;4.00;99.90;;;;;;4900017;29;20056;-66
2021/12/03 16:08:16;;;;;;;15.40;9.43;;;4.00;99.90;;;;;;4883043;29;20051;-67
2021/12/03 16:10:54;;;;;;;15.82;10.65;;;4.00;99.90;;;;;;4883444;29;20099;-68
2021/12/03 16:13:42;;;;;;;10.27;9.18;;;4.00;99.90;;;;;;4897103;29;20049;-68
2021/12/03 16:26:56;;;;;;;10.85;8.75;;;4.00;99.90;;;;;;4898607;29;20056;-66
2021/12/03 16:53:45;;;;;;;13.82;11.82;;;4.10;99.90;;;;;;4895513;29;20546;-68
2021/12/03 16:56:16;;;;;;;14.30;12.00;;;4.00;99.90;;;;;;4908200;29;20459;-68
2021/12/03 16:58:42;;;;;;;13.23;11.93;;;4.10;99.90;;;;;;4897332;29;20052;-68
2021/12/03 17:01:34;;;;;;;13.90;12.50;;;4.10;99.90;;;;;;4881958;29;20096;-68
2021/12/03 17:12:28;;;;;;;15.35;12.18;;;4.00;99.90;;;;;;4898825;29;20192;-68
2021/12/03 17:49:01;;;;;;;20.88;15.95;;;3.90;99.90;;;;;;4895756;29;20059;-68
2021/12/03 17:56:50;;;;;;;21.17;16.02;;;3.90;99.90;;;;;;4878448;29;20049;-66
2021/12/03 17:59:26;;;;;;;20.88;15.75;;;3.90;99.90;;;;;;4879793;29;20056;-69
2021/12/03 18:01:57;;;;;;;20.65;15.93;;;3.90;99.90;;;;;;4879224;29;20140;-66
2021/12/03 18:07:17;;;;;;;21.63;17.10;;;3.90;99.90;;;;;;4897129;29;20049;-67
2021/12/03 18:13:11;;;;;;;20.75;16.60;;;3.90;99.90;;;;;;4862827;29;20135;-69
2021/12/03 18:18:45;;;;;;;22.75;16.52;;;4.00;99.90;;;;;;4901829;29;20053;-66
2021/12/03 18:56:33;;;;;;;27.80;20.73;;;4.10;99.90;;;;;;4880657;29;20512;-67
2021/12/03 18:59:03;;;;;;;29.33;21.13;;;4.10;99.90;;;;;;4880795;29;20060;-66
2021/12/03 19:01:32;;;;;;;27.25;21.05;;;4.10;99.90;;;;;;4896098;29;20082;-68
2021/12/03 19:06:30;;;;;;;30.77;22.33;;;4.10;99.90;;;;;;4898478;29;20060;-68
2021/12/03 19:09:05;;;;;;;28.33;20.10;;;4.20;99.90;;;;;;4884038;29;20135;-66